Flight Track Log - Related Links

Times and Time Zones

All times are in EDT time to prevent confusion due to time zone crossing. See the C-GFSG flight status page for this flight to view local times or setup timezone preferences in your user account.

Time Position Orientation Groundspeed Altitude Reporting Facility
EDT Latitude Longitude Course Direction KTS MPH feet Rate Location/Type
Sun 07:29:56 PM 55.1500 -105.3167 190° South 160 184 4,300  Level Winnipeg Center
Sun 07:30:56 PM 55.1000 -105.3167 180° South 160 184 6,100 1,850 Climbing Winnipeg Center
Sun 07:31:56 PM 55.0667 -105.3000 164° South 170 196 8,000 2,000 Climbing Winnipeg Center
Sun 07:32:56 PM 55.0167 -105.3333 201° Southwest 170 196 10,100 1,950 Climbing Winnipeg Center
Sun 07:33:56 PM 54.9667 -105.3500 191° South 170 196 11,900 1,800 Climbing Winnipeg Center
Sun 07:34:00 PM 54.7926 -105.3301 184° South  Level FlightAware Approximate
Sun 07:34:56 PM 54.9167 -105.3333 169° South 170 196 13,700  Level Winnipeg Center
Sun 07:35:00 PM 54.7333 -105.3434 190° South  Level FlightAware Approximate
Sun 07:35:56 PM 54.8667 -105.3500 191° South 170 196 15,000  Level Winnipeg Center
Sun 07:36:56 PM 54.8167 -105.3667 191° South 210 242 15,000  Level Winnipeg Center
Sun 07:37:56 PM 54.7500 -105.3833 188° South 250 288 15,000  Level Winnipeg Center
Sun 07:38:56 PM 54.6667 -105.4000 187° South 260 299 15,000  Level Winnipeg Center
Sun 07:39:57 PM 54.6000 -105.4167 188° South 270 311 15,000  Level Winnipeg Center
Sun 07:40:56 PM 54.5333 -105.4333 188° South 270 311 15,000  Level Winnipeg Center
Sun 07:41:56 PM 54.4500 -105.4500 187° South 260 299 15,000  Level Winnipeg Center
Sun 07:42:56 PM 54.3667 -105.4500 180° South 260 299 15,000  Level Winnipeg Center
Sun 07:43:57 PM 54.3000 -105.4667 188° South 260 299 15,000  Level Winnipeg Center
Sun 07:44:56 PM 54.2333 -105.4833 188° South 260 299 15,000  Level Winnipeg Center
Sun 07:45:56 PM 54.1667 -105.5000 188° South 260 299 15,000  Level Winnipeg Center
Sun 07:46:56 PM 54.0833 -105.5167 187° South 260 299 15,000 50 Level Winnipeg Center
Sun 07:47:56 PM 54.0167 -105.5333 188° South 260 299 15,100 -300 Climbing Winnipeg Center
Sun 07:48:56 PM 53.9333 -105.5333 180° South 270 311 14,400 -1,140 Descending Winnipeg Center
Sun 07:49:57 PM 53.8667 -105.5833 204° Southwest 280 322 12,800 -1,700 Descending Winnipeg Center
Sun 07:50:56 PM 53.7667 -105.5833 180° South 300 345 11,000 -1,714 Descending Winnipeg Center
Sun 07:51:56 PM 53.6833 -105.6000 187° South 290 334 9,400 -1,537 Descending Winnipeg Center
Sun 07:52:57 PM 53.6167 -105.6167 188° South 290 334 7,900 -1,190 Descending Winnipeg Center
Sun 07:53:57 PM 53.5333 -105.6333 187° South 280 322 7,000 -900 Descending Winnipeg Center
Sun 07:56:00 PM 53.4106 -105.6333 180° South  Level FlightAware Approximate
Sun 08:03:00 PM 53.2142 -105.6728 180° South  Level Estimated
Sun 08:04:00 PM 53.2142 -105.6728 180° South  Level Estimated
Sun 08:05:00 PM 53.2142 -105.6728 180° South  Level Estimated
Sun 08:06:00 PM 53.2142 -105.6728 180° South  Level Estimated

Login

Don't have an account? Register now (free) for customized features, flight alerts, and more!